createdAt,value
2017-02-09T00:00:04.387Z,100
2017-02-09T00:00:25.705Z,100
2017-02-09T00:00:47.669Z,100
2017-02-09T00:01:08.957Z,100
2017-02-09T00:01:30.299Z,100
2017-02-09T00:01:51.608Z,100
2017-02-09T00:02:12.970Z,100
2017-02-09T00:02:34.310Z,100
2017-02-09T00:02:55.634Z,100
2017-02-09T00:03:16.990Z,100
2017-02-09T00:03:38.311Z,100
2017-02-09T00:03:59.644Z,100
2017-02-09T00:04:20.978Z,100
2017-02-09T00:04:42.254Z,100
2017-02-09T00:05:03.580Z,100
2017-02-09T00:05:24.903Z,100
2017-02-09T00:05:46.189Z,100
2017-02-09T00:06:07.503Z,100
2017-02-09T00:06:28.815Z,100
2017-02-09T00:06:50.132Z,100
2017-02-09T00:07:11.445Z,100
2017-02-09T00:07:32.781Z,100
2017-02-09T00:07:54.139Z,100
2017-02-09T00:08:15.446Z,100
2017-02-09T00:08:36.755Z,100
2017-02-09T00:08:58.068Z,100
2017-02-09T00:09:19.373Z,100
2017-02-09T00:09:40.659Z,100
2017-02-09T00:10:01.994Z,100
2017-02-09T00:10:23.305Z,100
2017-02-09T00:10:44.616Z,100
2017-02-09T00:11:05.912Z,100
2017-02-09T00:11:27.247Z,100
2017-02-09T00:11:48.563Z,100
2017-02-09T00:12:10.653Z,100
2017-02-09T00:12:31.988Z,100
2017-02-09T00:12:53.320Z,100
2017-02-09T00:13:14.677Z,100
2017-02-09T00:13:36.030Z,100
2017-02-09T00:13:57.355Z,100
2017-02-09T00:14:18.687Z,100
2017-02-09T00:14:39.985Z,100
2017-02-09T00:15:01.327Z,100
2017-02-09T00:15:22.706Z,100
2017-02-09T00:15:44.024Z,100
2017-02-09T00:16:05.348Z,100
2017-02-09T00:16:26.673Z,100
2017-02-09T00:16:47.996Z,100
2017-02-09T00:17:09.330Z,100
2017-02-09T00:17:31.392Z,100
2017-02-09T00:17:52.687Z,100
2017-02-09T00:18:14.016Z,100
2017-02-09T00:18:35.349Z,100
2017-02-09T00:18:56.637Z,100
2017-02-09T00:19:17.929Z,100
2017-02-09T00:19:39.240Z,100
2017-02-09T00:20:00.555Z,100
2017-02-09T00:20:21.888Z,100
2017-02-09T00:20:43.208Z,100
2017-02-09T00:21:04.530Z,100
2017-02-09T00:21:25.847Z,100
2017-02-09T00:21:47.144Z,100
2017-02-09T00:22:08.520Z,100
2017-02-09T00:22:29.812Z,100
2017-02-09T00:22:51.983Z,100
2017-02-09T00:23:13.280Z,100
2017-02-09T00:23:34.658Z,100
2017-02-09T00:23:55.997Z,100
2017-02-09T00:24:17.960Z,100
2017-02-09T00:24:39.323Z,100
2017-02-09T00:25:00.625Z,100
2017-02-09T00:25:21.949Z,100
2017-02-09T00:25:43.294Z,100
2017-02-09T00:26:04.619Z,100
2017-02-09T00:26:25.967Z,100
2017-02-09T00:26:47.807Z,100
2017-02-09T00:27:09.146Z,100
2017-02-09T00:27:31.283Z,100
2017-02-09T00:27:52.585Z,100
2017-02-09T00:28:15.306Z,100
2017-02-09T00:28:36.599Z,100
2017-02-09T00:28:57.992Z,100
2017-02-09T00:29:19.368Z,100
2017-02-09T00:29:40.664Z,100
2017-02-09T00:30:02.013Z,100
2017-02-09T00:30:23.334Z,100
2017-02-09T00:30:44.692Z,100
2017-02-09T00:31:05.975Z,100
2017-02-09T00:31:27.251Z,100
2017-02-09T00:31:48.591Z,100
2017-02-09T00:32:09.904Z,100
2017-02-09T00:32:31.190Z,100
2017-02-09T00:32:52.515Z,100
2017-02-09T00:33:13.896Z,100
2017-02-09T00:33:35.210Z,100
2017-02-09T00:33:56.609Z,100
2017-02-09T00:34:18.810Z,100
2017-02-09T00:34:40.090Z,100
2017-02-09T00:35:01.433Z,100
2017-02-09T00:35:22.742Z,100
2017-02-09T00:35:44.031Z,100
2017-02-09T00:36:05.329Z,100
2017-02-09T00:36:26.652Z,100
2017-02-09T00:36:48.010Z,100
2017-02-09T00:37:09.391Z,100
2017-02-09T00:37:30.702Z,100
2017-02-09T00:37:52.102Z,100
2017-02-09T00:38:14.420Z,100
2017-02-09T00:38:35.727Z,100
2017-02-09T00:38:57.021Z,100
2017-02-09T00:39:18.356Z,100
2017-02-09T00:39:39.668Z,100
2017-02-09T00:40:01.000Z,100
2017-02-09T00:40:22.816Z,100
2017-02-09T00:40:44.111Z,100
2017-02-09T00:41:05.408Z,100
2017-02-09T00:41:26.757Z,100
2017-02-09T00:41:48.083Z,100
2017-02-09T00:42:09.350Z,100
2017-02-09T00:42:30.662Z,100
2017-02-09T00:42:51.953Z,100
2017-02-09T00:43:13.805Z,100
2017-02-09T00:43:35.147Z,100
2017-02-09T00:43:56.495Z,100
2017-02-09T00:44:17.791Z,100
2017-02-09T00:44:39.127Z,100
2017-02-09T00:45:00.456Z,100
2017-02-09T00:45:21.754Z,100
2017-02-09T00:45:43.070Z,100
2017-02-09T00:46:04.386Z,100
2017-02-09T00:46:25.749Z,100
2017-02-09T00:46:47.060Z,100
2017-02-09T00:47:09.801Z,100
2017-02-09T00:47:31.156Z,100
2017-02-09T00:47:53.256Z,100
2017-02-09T00:48:14.630Z,100
2017-02-09T00:48:35.982Z,100
2017-02-09T00:48:57.265Z,100
2017-02-09T00:49:18.556Z,100
2017-02-09T00:49:39.905Z,100
2017-02-09T00:50:01.208Z,100
2017-02-09T00:50:22.531Z,100
2017-02-09T00:50:43.824Z,100
2017-02-09T00:51:05.099Z,100
2017-02-09T00:51:26.419Z,100
2017-02-09T00:51:47.718Z,100
2017-02-09T00:52:09.019Z,100
2017-02-09T00:52:30.351Z,100
2017-02-09T00:52:52.235Z,100
2017-02-09T00:53:13.550Z,100
2017-02-09T00:53:34.890Z,100
2017-02-09T00:53:56.203Z,100
2017-02-09T00:54:17.526Z,100
2017-02-09T00:54:38.839Z,100
2017-02-09T00:55:00.127Z,100
2017-02-09T00:55:21.486Z,100
2017-02-09T00:55:42.813Z,100
2017-02-09T00:56:04.811Z,100
2017-02-09T00:56:26.106Z,100
2017-02-09T00:56:48.001Z,100
2017-02-09T00:57:09.321Z,100
2017-02-09T00:57:30.642Z,100
2017-02-09T00:57:51.959Z,100
2017-02-09T00:58:13.257Z,100
2017-02-09T00:58:34.552Z,100
2017-02-09T00:58:56.468Z,100
2017-02-09T00:59:18.603Z,100
2017-02-09T00:59:39.944Z,100
2017-02-09T01:00:01.237Z,100
2017-02-09T01:00:22.538Z,100
2017-02-09T01:00:43.876Z,100
2017-02-09T01:01:06.400Z,100
2017-02-09T01:01:28.299Z,100
2017-02-09T01:01:49.629Z,100
2017-02-09T01:02:10.927Z,100
2017-02-09T01:02:33.028Z,100
2017-02-09T01:02:54.316Z,100
2017-02-09T01:03:15.610Z,100
2017-02-09T01:03:36.930Z,100
2017-02-09T01:03:58.307Z,100
2017-02-09T01:04:19.619Z,100
2017-02-09T01:04:40.948Z,100
2017-02-09T01:05:02.270Z,100
2017-02-09T01:05:23.606Z,100
2017-02-09T01:05:44.913Z,100
2017-02-09T01:06:06.218Z,100
2017-02-09T01:06:27.535Z,100
2017-02-09T01:06:48.865Z,100
2017-02-09T01:07:10.191Z,100
2017-02-09T01:07:31.523Z,100
2017-02-09T01:07:53.683Z,100
2017-02-09T01:08:15.069Z,100
2017-02-09T01:08:36.415Z,100
2017-02-09T01:08:59.266Z,100
2017-02-09T01:09:20.606Z,100
2017-02-09T01:09:41.882Z,100
2017-02-09T01:10:03.211Z,100
2017-02-09T01:10:25.396Z,100
2017-02-09T01:10:47.559Z,100
2017-02-09T01:11:08.841Z,100
2017-02-09T01:11:30.159Z,100
2017-02-09T01:11:51.508Z,100
2017-02-09T01:12:12.864Z,100
2017-02-09T01:12:34.774Z,100
2017-02-09T01:12:56.075Z,100
2017-02-09T01:13:18.278Z,100
2017-02-09T01:13:39.635Z,100
2017-02-09T01:14:01.769Z,100
2017-02-09T01:14:23.077Z,100
2017-02-09T01:14:45.399Z,100
2017-02-09T01:15:06.750Z,100
2017-02-09T01:15:28.056Z,100
2017-02-09T01:15:49.396Z,100
2017-02-09T01:16:10.740Z,100
2017-02-09T01:16:32.033Z,100
2017-02-09T01:16:53.309Z,100
2017-02-09T01:17:15.316Z,100
2017-02-09T01:17:36.598Z,100
2017-02-09T01:17:57.908Z,100
2017-02-09T01:18:19.205Z,100
2017-02-09T01:18:40.547Z,100
2017-02-09T01:19:01.877Z,100
2017-02-09T01:19:23.204Z,100
2017-02-09T01:19:44.514Z,100
2017-02-09T01:20:05.803Z,100
2017-02-09T01:20:28.541Z,100
2017-02-09T01:20:49.843Z,100
2017-02-09T01:21:11.922Z,100
2017-02-09T01:21:33.223Z,100
2017-02-09T01:21:54.522Z,100
2017-02-09T01:22:16.588Z,100
2017-02-09T01:22:37.950Z,100
2017-02-09T01:23:00.183Z,100
2017-02-09T01:23:21.496Z,100
2017-02-09T01:23:42.834Z,100
2017-02-09T01:24:04.149Z,100
2017-02-09T01:24:25.473Z,100
2017-02-09T01:24:46.813Z,100
2017-02-09T01:25:08.085Z,100
2017-02-09T01:25:30.320Z,100
2017-02-09T01:25:51.681Z,100
2017-02-09T01:26:13.481Z,100
2017-02-09T01:26:34.800Z,100
2017-02-09T01:26:56.112Z,100
2017-02-09T01:27:17.451Z,100
2017-02-09T01:27:38.777Z,100
2017-02-09T01:28:00.106Z,100
2017-02-09T01:28:21.395Z,100
2017-02-09T01:28:42.725Z,100
2017-02-09T01:29:04.008Z,100
2017-02-09T01:29:25.303Z,100
2017-02-09T01:29:46.619Z,100
2017-02-09T01:30:07.986Z,100
2017-02-09T01:30:29.352Z,100
2017-02-09T01:30:50.657Z,100
2017-02-09T01:31:11.949Z,100
2017-02-09T01:31:33.301Z,100
2017-02-09T01:31:54.591Z,100
2017-02-09T01:32:15.895Z,100
2017-02-09T01:32:37.208Z,100
2017-02-09T01:32:58.487Z,100
2017-02-09T01:33:19.799Z,100
2017-02-09T01:33:41.113Z,100
2017-02-09T01:34:02.562Z,100
2017-02-09T01:34:23.925Z,100
2017-02-09T01:34:45.268Z,100
2017-02-09T01:35:06.578Z,100
2017-02-09T01:35:28.867Z,100
2017-02-09T01:35:50.139Z,100
2017-02-09T01:36:11.473Z,100
2017-02-09T01:36:32.767Z,100
2017-02-09T01:36:54.683Z,100
2017-02-09T01:37:15.969Z,100
2017-02-09T01:37:37.330Z,100
2017-02-09T01:37:58.650Z,100
2017-02-09T01:38:19.939Z,100
2017-02-09T01:38:41.241Z,100
2017-02-09T01:39:02.549Z,100
2017-02-09T01:39:23.844Z,100
2017-02-09T01:39:45.158Z,100
2017-02-09T01:40:06.531Z,100
2017-02-09T01:40:27.852Z,100
2017-02-09T01:40:49.171Z,100
2017-02-09T01:41:10.455Z,100
2017-02-09T01:41:31.757Z,100
2017-02-09T01:41:53.059Z,100
2017-02-09T01:42:14.401Z,100
2017-02-09T01:42:35.731Z,100
2017-02-09T01:42:57.032Z,100
2017-02-09T01:43:18.367Z,100
2017-02-09T01:43:39.671Z,100
2017-02-09T01:44:00.965Z,100
2017-02-09T01:44:22.280Z,100
2017-02-09T01:44:44.182Z,100
2017-02-09T01:45:05.505Z,100
2017-02-09T01:45:26.803Z,100
2017-02-09T01:45:48.082Z,100
2017-02-09T01:46:09.394Z,100
2017-02-09T01:46:30.699Z,100
2017-02-09T01:46:52.003Z,100
2017-02-09T01:47:13.322Z,100
2017-02-09T01:47:34.649Z,100
2017-02-09T01:47:56.010Z,100
2017-02-09T01:48:17.297Z,100
2017-02-09T01:48:38.627Z,100
2017-02-09T01:48:59.915Z,100
2017-02-09T01:49:21.197Z,100
2017-02-09T01:49:42.498Z,100
2017-02-09T01:50:03.835Z,100
2017-02-09T01:50:25.133Z,100
2017-02-09T01:50:46.462Z,100
2017-02-09T01:51:07.784Z,100
2017-02-09T01:51:29.685Z,100
2017-02-09T01:51:51.006Z,100
2017-02-09T01:52:12.360Z,100
2017-02-09T01:52:33.675Z,100
2017-02-09T01:52:55.921Z,100
2017-02-09T01:53:17.766Z,100
2017-02-09T01:53:39.032Z,100
2017-02-09T01:54:00.384Z,100
2017-02-09T01:54:21.719Z,99.9
2017-02-09T01:54:43.049Z,100
2017-02-09T01:55:04.346Z,99.6
2017-02-09T01:55:26.625Z,100
2017-02-09T01:55:48.599Z,100
2017-02-09T01:56:09.941Z,100
2017-02-09T01:56:31.245Z,100
2017-02-09T01:56:52.591Z,100
2017-02-09T01:57:13.925Z,100
2017-02-09T01:57:35.225Z,100
2017-02-09T01:57:56.521Z,100
2017-02-09T01:58:17.811Z,100
2017-02-09T01:58:39.125Z,100
2017-02-09T01:59:00.407Z,100
2017-02-09T01:59:21.714Z,100
2017-02-09T01:59:43.018Z,100
2017-02-09T02:00:04.326Z,100
2017-02-09T02:00:25.635Z,100
2017-02-09T02:00:47.478Z,100
2017-02-09T02:01:08.806Z,100
2017-02-09T02:01:30.110Z,100
2017-02-09T02:01:51.429Z,100
2017-02-09T02:02:12.734Z,100
2017-02-09T02:02:34.084Z,100
2017-02-09T02:02:55.420Z,100
2017-02-09T02:03:18.187Z,100
2017-02-09T02:03:39.480Z,100
2017-02-09T02:04:00.753Z,100
2017-02-09T02:04:22.083Z,100
2017-02-09T02:04:44.046Z,100
2017-02-09T02:05:05.346Z,100
2017-02-09T02:05:26.663Z,100
2017-02-09T02:05:47.989Z,100
2017-02-09T02:06:09.299Z,100
2017-02-09T02:06:30.669Z,100
2017-02-09T02:06:51.963Z,100
2017-02-09T02:07:13.254Z,100
2017-02-09T02:07:34.585Z,100
2017-02-09T02:07:55.947Z,100
2017-02-09T02:08:17.289Z,100
2017-02-09T02:08:38.627Z,100
2017-02-09T02:08:59.898Z,100
2017-02-09T02:09:21.230Z,100
2017-02-09T02:09:42.510Z,100
2017-02-09T02:10:03.800Z,100
2017-02-09T02:10:25.133Z,100
2017-02-09T02:10:46.441Z,100
2017-02-09T02:11:07.787Z,100
2017-02-09T02:11:29.109Z,100
2017-02-09T02:11:50.449Z,100
2017-02-09T02:12:11.766Z,100
2017-02-09T02:12:33.049Z,100
2017-02-09T02:12:54.333Z,100
2017-02-09T02:13:15.656Z,100
2017-02-09T02:13:37.006Z,100
2017-02-09T02:13:58.337Z,100
2017-02-09T02:14:19.630Z,100
2017-02-09T02:14:40.928Z,100
2017-02-09T02:15:02.263Z,100
2017-02-09T02:15:23.555Z,100
2017-02-09T02:15:44.830Z,100
2017-02-09T02:16:06.188Z,100
2017-02-09T02:16:27.502Z,100
2017-02-09T02:16:48.822Z,100
2017-02-09T02:17:10.152Z,100
2017-02-09T02:17:31.460Z,100
2017-02-09T02:17:52.814Z,100
2017-02-09T02:18:14.133Z,100
2017-02-09T02:18:35.425Z,100
2017-02-09T02:18:56.768Z,100
2017-02-09T02:19:18.073Z,100
2017-02-09T02:19:39.427Z,100
2017-02-09T02:20:00.753Z,100
2017-02-09T02:20:22.116Z,100
2017-02-09T02:20:44.171Z,100
2017-02-09T02:21:05.479Z,100
2017-02-09T02:21:26.778Z,100
2017-02-09T02:21:48.107Z,100
2017-02-09T02:22:09.423Z,100
2017-02-09T02:22:30.722Z,100
2017-02-09T02:22:52.063Z,100
2017-02-09T02:23:13.995Z,100
2017-02-09T02:23:35.318Z,100
2017-02-09T02:23:56.652Z,100
2017-02-09T02:24:18.939Z,100
2017-02-09T02:24:40.234Z,99.9
2017-02-09T02:25:01.528Z,99.5
2017-02-09T02:25:22.809Z,99.3
2017-02-09T02:25:44.123Z,100
2017-02-09T02:26:05.489Z,100
2017-02-09T02:26:26.791Z,100
2017-02-09T02:26:48.098Z,100
2017-02-09T02:27:09.375Z,100
2017-02-09T02:27:30.697Z,100
2017-02-09T02:27:51.993Z,100
2017-02-09T02:28:13.313Z,100
2017-02-09T02:28:34.633Z,100
2017-02-09T02:28:55.944Z,100
2017-02-09T02:29:17.266Z,100
2017-02-09T02:29:38.562Z,100
2017-02-09T02:29:59.874Z,100
2017-02-09T02:30:21.169Z,100
2017-02-09T02:30:43.192Z,100
2017-02-09T02:31:11.066Z,100
2017-02-09T02:31:32.364Z,100
2017-02-09T02:31:53.686Z,100
2017-02-09T02:32:15.055Z,100
2017-02-09T02:32:36.373Z,100
2017-02-09T02:32:57.666Z,100
2017-02-09T02:33:18.985Z,100
2017-02-09T02:33:41.318Z,100
2017-02-09T02:34:02.730Z,100
2017-02-09T02:34:25.056Z,100
2017-02-09T02:34:46.349Z,100
2017-02-09T02:35:07.662Z,100
2017-02-09T02:35:29.023Z,100
2017-02-09T02:35:50.370Z,99.6
2017-02-09T02:36:11.655Z,99.4
2017-02-09T02:36:32.997Z,99.6
2017-02-09T02:36:54.321Z,99.6
2017-02-09T02:37:15.661Z,99.4
2017-02-09T02:37:37.928Z,99.5
2017-02-09T02:37:59.293Z,99.6
2017-02-09T02:38:20.615Z,100
2017-02-09T02:38:41.909Z,99.8
2017-02-09T02:39:03.224Z,100
2017-02-09T02:39:24.558Z,100
2017-02-09T02:39:45.849Z,100
2017-02-09T02:40:07.245Z,100
2017-02-09T02:40:28.516Z,100
2017-02-09T02:40:50.805Z,100
2017-02-09T02:41:12.176Z,100
2017-02-09T02:41:33.465Z,100
2017-02-09T02:41:54.757Z,100
2017-02-09T02:42:16.056Z,100
2017-02-09T02:42:37.404Z,100
2017-02-09T02:42:58.681Z,100
2017-02-09T02:43:20.652Z,100
2017-02-09T02:43:42.000Z,100
2017-02-09T02:44:03.320Z,100
2017-02-09T02:44:24.617Z,100
2017-02-09T02:44:46.692Z,100
2017-02-09T02:45:08.923Z,100
2017-02-09T02:45:30.285Z,100
2017-02-09T02:45:51.626Z,99.7
2017-02-09T02:46:12.916Z,99.7
2017-02-09T02:46:34.202Z,100
2017-02-09T02:46:55.526Z,100
2017-02-09T02:47:16.855Z,100
2017-02-09T02:47:38.174Z,100
2017-02-09T02:47:59.591Z,100
2017-02-09T02:48:20.921Z,100
2017-02-09T02:48:42.236Z,100
2017-02-09T02:49:03.541Z,100
2017-02-09T02:49:24.886Z,100
2017-02-09T02:49:46.207Z,100
2017-02-09T02:50:07.510Z,100
2017-02-09T02:50:28.837Z,99.7
2017-02-09T02:50:50.142Z,99.7
2017-02-09T02:51:11.467Z,99.5
2017-02-09T02:51:32.761Z,99.6
2017-02-09T02:51:54.089Z,100
2017-02-09T02:52:15.438Z,100
2017-02-09T02:52:36.824Z,100
2017-02-09T02:52:58.157Z,100
2017-02-09T02:53:19.458Z,100
2017-02-09T02:53:40.743Z,100
2017-02-09T02:54:02.067Z,100
2017-02-09T02:54:24.813Z,100
2017-02-09T02:54:47.310Z,100
2017-02-09T02:55:08.649Z,100
2017-02-09T02:55:29.960Z,100
2017-02-09T02:55:51.298Z,100
2017-02-09T02:56:12.580Z,100
2017-02-09T02:56:33.895Z,100
2017-02-09T02:56:55.173Z,100
2017-02-09T02:57:16.493Z,100
2017-02-09T02:57:37.786Z,100
2017-02-09T02:57:59.123Z,100
2017-02-09T02:58:20.471Z,100
2017-02-09T02:58:41.797Z,100
2017-02-09T02:59:03.107Z,100
2017-02-09T02:59:24.450Z,100
2017-02-09T02:59:45.823Z,100
2017-02-09T03:00:07.162Z,100
2017-02-09T03:00:28.482Z,100
2017-02-09T03:00:50.333Z,100
2017-02-09T03:01:11.636Z,100
2017-02-09T03:01:32.922Z,100
2017-02-09T03:01:54.265Z,100
2017-02-09T03:02:15.573Z,100
2017-02-09T03:02:37.445Z,100
2017-02-09T03:02:58.737Z,100
2017-02-09T03:03:20.052Z,100
2017-02-09T03:03:41.378Z,100
2017-02-09T03:04:02.748Z,100
2017-02-09T03:04:24.876Z,100
2017-02-09T03:04:46.183Z,100
2017-02-09T03:05:08.292Z,100
2017-02-09T03:05:30.522Z,100
2017-02-09T03:05:52.856Z,100
2017-02-09T03:06:14.869Z,100
2017-02-09T03:06:36.915Z,100
2017-02-09T03:06:58.214Z,100
2017-02-09T03:07:20.423Z,100
2017-02-09T03:07:41.712Z,100
2017-02-09T03:08:04.017Z,100
2017-02-09T03:08:25.995Z,100
2017-02-09T03:08:47.301Z,100
2017-02-09T03:09:08.585Z,100
2017-02-09T03:09:29.861Z,100
2017-02-09T03:09:51.203Z,100
2017-02-09T03:10:12.499Z,100
2017-02-09T03:10:33.815Z,100
2017-02-09T03:10:55.125Z,100
2017-02-09T03:11:16.455Z,100
2017-02-09T03:11:38.426Z,100
2017-02-09T03:11:59.753Z,100
2017-02-09T03:12:21.084Z,100
2017-02-09T03:12:42.431Z,100
2017-02-09T03:13:03.749Z,100
2017-02-09T03:13:25.090Z,100
2017-02-09T03:13:46.399Z,100
2017-02-09T03:14:07.694Z,100
2017-02-09T03:14:28.996Z,100
2017-02-09T03:14:50.319Z,100
2017-02-09T03:15:11.630Z,100
2017-02-09T03:15:33.432Z,100
2017-02-09T03:15:55.342Z,100
2017-02-09T03:16:16.658Z,100
2017-02-09T03:16:38.022Z,100
2017-02-09T03:16:59.371Z,100
2017-02-09T03:17:20.668Z,100
2017-02-09T03:17:41.989Z,100
2017-02-09T03:18:03.343Z,99.5
2017-02-09T03:18:24.632Z,99.6
2017-02-09T03:18:46.987Z,99.5
2017-02-09T03:19:08.316Z,99.7
2017-02-09T03:19:29.631Z,100
2017-02-09T03:19:50.956Z,100
2017-02-09T03:20:12.923Z,100
2017-02-09T03:20:34.202Z,100
2017-02-09T03:20:56.461Z,100
2017-02-09T03:21:18.697Z,100
2017-02-09T03:21:40.011Z,100
2017-02-09T03:22:01.342Z,100
2017-02-09T03:22:22.680Z,100
2017-02-09T03:22:44.005Z,100
2017-02-09T03:23:05.328Z,100
2017-02-09T03:23:26.670Z,100
2017-02-09T03:23:48.001Z,100
2017-02-09T03:24:09.342Z,100
2017-02-09T03:24:30.674Z,100
2017-02-09T03:24:52.565Z,100
2017-02-09T03:25:13.859Z,100
2017-02-09T03:25:35.164Z,100
2017-02-09T03:25:56.530Z,100
2017-02-09T03:26:17.850Z,100
2017-02-09T03:26:39.849Z,100
2017-02-09T03:27:01.145Z,100
2017-02-09T03:27:22.561Z,100
2017-02-09T03:27:43.892Z,100
2017-02-09T03:28:05.173Z,100
2017-02-09T03:28:26.472Z,100
2017-02-09T03:28:47.791Z,100
2017-02-09T03:29:09.102Z,100
2017-02-09T03:29:30.457Z,100
2017-02-09T03:29:51.777Z,100
2017-02-09T03:30:13.861Z,99.9
2017-02-09T03:30:35.196Z,100
2017-02-09T03:30:56.482Z,100
2017-02-09T03:31:17.833Z,100
2017-02-09T03:31:39.165Z,100
2017-02-09T03:32:00.459Z,100
2017-02-09T03:32:22.474Z,100
2017-02-09T03:32:43.852Z,100
2017-02-09T03:33:05.139Z,100
2017-02-09T03:33:26.455Z,100
2017-02-09T03:33:47.806Z,100
2017-02-09T03:34:09.113Z,100
2017-02-09T03:34:30.409Z,100
2017-02-09T03:34:51.695Z,100
2017-02-09T03:35:13.036Z,100
2017-02-09T03:35:34.351Z,100
2017-02-09T03:35:55.728Z,100
2017-02-09T03:36:17.081Z,100
2017-02-09T03:36:38.458Z,100
2017-02-09T03:37:00.425Z,100
2017-02-09T03:37:21.754Z,100
2017-02-09T03:37:43.054Z,100
2017-02-09T03:38:04.428Z,100
2017-02-09T03:38:25.786Z,100
2017-02-09T03:38:47.097Z,100
2017-02-09T03:39:08.445Z,100
2017-02-09T03:39:29.736Z,100
2017-02-09T03:39:51.061Z,100
2017-02-09T03:40:12.373Z,100
2017-02-09T03:40:33.744Z,100
2017-02-09T03:40:55.068Z,100
2017-02-09T03:41:17.426Z,100
2017-02-09T03:41:38.740Z,100
2017-02-09T03:42:00.063Z,100
2017-02-09T03:42:21.437Z,100
2017-02-09T03:42:42.759Z,100
2017-02-09T03:43:04.076Z,100
2017-02-09T03:43:25.388Z,100
2017-02-09T03:43:47.556Z,100
2017-02-09T03:44:08.873Z,100
2017-02-09T03:44:31.029Z,100
2017-02-09T03:44:52.326Z,100
2017-02-09T03:45:13.689Z,100
2017-02-09T03:45:35.000Z,100
2017-02-09T03:45:56.935Z,100
2017-02-09T03:46:18.702Z,100
2017-02-09T03:46:40.826Z,100
2017-02-09T03:47:02.118Z,100
2017-02-09T03:47:24.337Z,100
2017-02-09T03:47:45.652Z,100
2017-02-09T03:48:06.989Z,100
2017-02-09T03:48:28.848Z,100
2017-02-09T03:48:50.204Z,100
2017-02-09T03:49:11.589Z,100
2017-02-09T03:49:32.900Z,100
2017-02-09T03:49:54.175Z,100
2017-02-09T03:50:15.487Z,100
2017-02-09T03:50:36.779Z,100
2017-02-09T03:50:58.632Z,100
2017-02-09T03:51:19.989Z,100
2017-02-09T03:51:41.295Z,100
2017-02-09T03:52:02.599Z,100
2017-02-09T03:52:23.982Z,99.9
2017-02-09T03:52:45.943Z,100
2017-02-09T03:53:08.028Z,100
2017-02-09T03:53:29.363Z,100
2017-02-09T03:53:51.560Z,100
2017-02-09T03:54:12.852Z,100
2017-02-09T03:54:34.162Z,100
2017-02-09T03:54:55.513Z,100
2017-02-09T03:55:16.844Z,100
2017-02-09T03:55:38.197Z,100
2017-02-09T03:55:59.500Z,100
2017-02-09T03:56:20.844Z,100
2017-02-09T03:56:42.161Z,100
2017-02-09T03:57:03.451Z,100
2017-02-09T03:57:24.795Z,100
2017-02-09T03:57:46.118Z,100
2017-02-09T03:58:07.931Z,100
2017-02-09T03:58:29.297Z,100
2017-02-09T03:58:51.279Z,100
2017-02-09T03:59:12.627Z,100
2017-02-09T03:59:34.502Z,100
2017-02-09T03:59:56.488Z,100
2017-02-09T04:00:17.829Z,100
2017-02-09T04:00:39.108Z,100
2017-02-09T04:01:00.447Z,100
2017-02-09T04:01:21.737Z,100
2017-02-09T04:01:43.068Z,100
2017-02-09T04:02:04.397Z,100
2017-02-09T04:02:25.728Z,100
2017-02-09T04:02:47.048Z,100
2017-02-09T04:03:08.382Z,100
2017-02-09T04:03:29.685Z,100
2017-02-09T04:03:51.002Z,100
2017-02-09T04:04:12.316Z,100
2017-02-09T04:04:33.646Z,100
2017-02-09T04:04:54.963Z,100
2017-02-09T04:05:16.257Z,100
2017-02-09T04:05:37.602Z,100
2017-02-09T04:05:58.899Z,100
2017-02-09T04:06:20.247Z,100
2017-02-09T04:06:41.566Z,100
2017-02-09T04:07:03.784Z,100
2017-02-09T04:07:25.102Z,100
2017-02-09T04:07:47.324Z,100
2017-02-09T04:08:08.677Z,100
2017-02-09T04:08:30.026Z,100
2017-02-09T04:08:51.365Z,100
2017-02-09T04:09:12.677Z,100
2017-02-09T04:09:34.016Z,100
2017-02-09T04:09:55.393Z,100
2017-02-09T04:10:16.709Z,100
2017-02-09T04:10:38.016Z,100
2017-02-09T04:10:59.347Z,100
2017-02-09T04:11:20.662Z,100
2017-02-09T04:11:41.975Z,100
2017-02-09T04:12:03.320Z,100
2017-02-09T04:12:24.664Z,100
2017-02-09T04:12:45.939Z,100
2017-02-09T04:13:07.256Z,100
2017-02-09T04:13:28.604Z,100
2017-02-09T04:13:49.914Z,100
2017-02-09T04:14:11.246Z,100
2017-02-09T04:14:32.538Z,100
2017-02-09T04:14:53.890Z,100
2017-02-09T04:15:15.234Z,100
2017-02-09T04:15:36.576Z,100
2017-02-09T04:15:58.791Z,100
2017-02-09T04:16:20.137Z,100
2017-02-09T04:16:41.461Z,100
2017-02-09T04:17:02.780Z,100
2017-02-09T04:17:24.093Z,100
2017-02-09T04:17:46.069Z,100
2017-02-09T04:18:07.356Z,100
2017-02-09T04:18:28.711Z,100
2017-02-09T04:18:50.017Z,100
2017-02-09T04:19:11.405Z,100
2017-02-09T04:19:32.680Z,100
2017-02-09T04:19:53.996Z,100
2017-02-09T04:20:15.326Z,100
2017-02-09T04:20:37.456Z,100
2017-02-09T04:20:58.738Z,100
2017-02-09T04:21:20.129Z,100
2017-02-09T04:21:41.478Z,100
2017-02-09T04:22:02.778Z,100
2017-02-09T04:22:24.050Z,100
2017-02-09T04:22:45.348Z,100
2017-02-09T04:23:06.642Z,100
2017-02-09T04:23:28.020Z,100
2017-02-09T04:23:49.400Z,100
2017-02-09T04:24:11.424Z,100
2017-02-09T04:24:32.770Z,100
2017-02-09T04:24:54.069Z,100
2017-02-09T04:25:15.363Z,100
2017-02-09T04:25:37.488Z,100
2017-02-09T04:25:59.671Z,100
2017-02-09T04:26:21.033Z,100
2017-02-09T04:26:42.350Z,100
2017-02-09T04:27:03.629Z,100
2017-02-09T04:27:24.967Z,100
2017-02-09T04:27:47.208Z,100
2017-02-09T04:28:08.493Z,100
2017-02-09T04:28:30.407Z,100
2017-02-09T04:28:53.206Z,100
2017-02-09T04:29:14.546Z,100
2017-02-09T04:29:35.824Z,100
2017-02-09T04:29:57.158Z,100
2017-02-09T04:30:19.208Z,100
2017-02-09T04:30:40.529Z,100
2017-02-09T04:31:01.848Z,100
2017-02-09T04:31:23.124Z,100
2017-02-09T04:31:44.469Z,100
2017-02-09T04:32:05.793Z,100
2017-02-09T04:32:27.165Z,100
2017-02-09T04:32:48.503Z,100
2017-02-09T04:33:09.867Z,100
2017-02-09T04:33:31.163Z,100
2017-02-09T04:33:52.481Z,100
2017-02-09T04:34:13.822Z,100
2017-02-09T04:34:35.112Z,100
2017-02-09T04:34:56.453Z,100
2017-02-09T04:35:17.796Z,100
2017-02-09T04:35:39.116Z,100
2017-02-09T04:36:00.466Z,100
2017-02-09T04:36:21.775Z,100
2017-02-09T04:36:43.106Z,100
2017-02-09T04:37:04.404Z,100
2017-02-09T04:37:25.755Z,100
2017-02-09T04:37:47.108Z,100
2017-02-09T04:38:08.393Z,100
2017-02-09T04:38:29.709Z,100
2017-02-09T04:38:51.930Z,100
2017-02-09T04:39:13.239Z,100
2017-02-09T04:39:34.538Z,100
2017-02-09T04:39:55.869Z,100
2017-02-09T04:40:17.186Z,100
2017-02-09T04:40:38.490Z,100
2017-02-09T04:41:00.715Z,100
2017-02-09T04:41:22.034Z,100
2017-02-09T04:41:43.312Z,100
2017-02-09T04:42:04.617Z,100
2017-02-09T04:42:25.951Z,100
2017-02-09T04:42:47.973Z,100
2017-02-09T04:43:09.281Z,100
2017-02-09T04:43:30.591Z,100
2017-02-09T04:43:51.880Z,100
2017-02-09T04:44:13.210Z,100
2017-02-09T04:44:34.502Z,100
2017-02-09T04:44:55.849Z,100
2017-02-09T04:45:17.156Z,100
2017-02-09T04:45:38.513Z,100
2017-02-09T04:45:59.808Z,100
2017-02-09T04:46:21.124Z,100
2017-02-09T04:46:42.785Z,100
2017-02-09T04:47:04.104Z,100
2017-02-09T04:47:26.032Z,100
2017-02-09T04:47:47.331Z,100
2017-02-09T04:48:09.282Z,100
2017-02-09T04:48:31.274Z,100
2017-02-09T04:48:53.365Z,100
2017-02-09T04:49:14.673Z,100
2017-02-09T04:49:36.030Z,100
2017-02-09T04:49:57.356Z,100
2017-02-09T04:50:18.671Z,100
2017-02-09T04:50:39.985Z,100
2017-02-09T04:51:01.269Z,100
2017-02-09T04:51:22.595Z,100
2017-02-09T04:51:43.908Z,100
2017-02-09T04:52:05.236Z,100
2017-02-09T04:52:26.516Z,100
2017-02-09T04:52:48.710Z,100
2017-02-09T04:53:10.011Z,100
2017-02-09T04:53:31.300Z,100
2017-02-09T04:53:52.648Z,100
2017-02-09T04:54:13.959Z,100
2017-02-09T04:54:35.271Z,100
2017-02-09T04:54:57.380Z,100